sensor_id;sensor_type;location;lat;lon;timestamp;P1;durP1;ratioP1;P2;durP2;ratioP2
8230;SDS011;4156;50.908;6.974;2022-11-20T00:01:15;11.93;;;7.67;;
8230;SDS011;4156;50.908;6.974;2022-11-20T00:03:43;10.97;;;7.90;;
8230;SDS011;4156;50.908;6.974;2022-11-20T00:06:10;11.13;;;7.60;;
8230;SDS011;4156;50.908;6.974;2022-11-20T00:08:38;11.03;;;8.23;;
8230;SDS011;4156;50.908;6.974;2022-11-20T00:11:04;13.00;;;9.13;;
8230;SDS011;4156;50.908;6.974;2022-11-20T00:13:30;12.80;;;7.70;;
8230;SDS011;4156;50.908;6.974;2022-11-20T00:15:57;11.33;;;7.63;;
8230;SDS011;4156;50.908;6.974;2022-11-20T00:18:23;14.47;;;9.37;;
8230;SDS011;4156;50.908;6.974;2022-11-20T00:20:49;13.20;;;8.90;;
8230;SDS011;4156;50.908;6.974;2022-11-20T00:23:15;12.53;;;8.33;;
8230;SDS011;4156;50.908;6.974;2022-11-20T00:25:40;11.43;;;7.80;;
8230;SDS011;4156;50.908;6.974;2022-11-20T00:28:06;11.40;;;8.27;;
8230;SDS011;4156;50.908;6.974;2022-11-20T00:30:31;16.03;;;7.93;;
8230;SDS011;4156;50.908;6.974;2022-11-20T00:32:56;12.40;;;8.20;;
8230;SDS011;4156;50.908;6.974;2022-11-20T00:35:22;13.40;;;7.87;;
8230;SDS011;4156;50.908;6.974;2022-11-20T00:37:48;12.63;;;8.17;;
8230;SDS011;4156;50.908;6.974;2022-11-20T00:40:13;10.83;;;7.90;;
8230;SDS011;4156;50.908;6.974;2022-11-20T00:42:39;10.77;;;7.50;;
8230;SDS011;4156;50.908;6.974;2022-11-20T00:45:05;10.53;;;7.37;;
8230;SDS011;4156;50.908;6.974;2022-11-20T00:47:30;11.30;;;8.33;;
8230;SDS011;4156;50.908;6.974;2022-11-20T00:49:56;11.83;;;8.87;;
8230;SDS011;4156;50.908;6.974;2022-11-20T00:52:21;11.20;;;7.97;;
8230;SDS011;4156;50.908;6.974;2022-11-20T00:54:47;12.87;;;8.33;;
8230;SDS011;4156;50.908;6.974;2022-11-20T00:57:12;11.40;;;8.60;;
8230;SDS011;4156;50.908;6.974;2022-11-20T00:59:38;11.10;;;7.70;;
8230;SDS011;4156;50.908;6.974;2022-11-20T01:02:03;12.90;;;8.30;;
8230;SDS011;4156;50.908;6.974;2022-11-20T01:04:29;12.90;;;8.00;;
8230;SDS011;4156;50.908;6.974;2022-11-20T01:06:54;12.20;;;7.67;;
8230;SDS011;4156;50.908;6.974;2022-11-20T01:09:20;11.47;;;8.00;;
8230;SDS011;4156;50.908;6.974;2022-11-20T01:11:45;11.00;;;8.07;;
8230;SDS011;4156;50.908;6.974;2022-11-20T01:14:12;11.63;;;8.93;;
8230;SDS011;4156;50.908;6.974;2022-11-20T01:16:41;11.93;;;8.07;;
8230;SDS011;4156;50.908;6.974;2022-11-20T01:19:10;12.33;;;8.50;;
8230;SDS011;4156;50.908;6.974;2022-11-20T01:21:38;11.07;;;8.60;;
8230;SDS011;4156;50.908;6.974;2022-11-20T01:24:05;13.03;;;7.60;;
8230;SDS011;4156;50.908;6.974;2022-11-20T01:26:36;12.47;;;8.40;;
8230;SDS011;4156;50.908;6.974;2022-11-20T01:29:03;12.10;;;8.83;;
8230;SDS011;4156;50.908;6.974;2022-11-20T01:31:31;11.77;;;7.93;;
8230;SDS011;4156;50.908;6.974;2022-11-20T01:34:01;11.87;;;7.73;;
8230;SDS011;4156;50.908;6.974;2022-11-20T01:36:32;12.77;;;8.87;;
8230;SDS011;4156;50.908;6.974;2022-11-20T01:39:00;13.53;;;8.47;;
8230;SDS011;4156;50.908;6.974;2022-11-20T01:41:28;9.00;;;6.87;;
8230;SDS011;4156;50.908;6.974;2022-11-20T01:44:14;12.07;;;8.27;;
8230;SDS011;4156;50.908;6.974;2022-11-20T01:46:46;12.00;;;8.20;;
8230;SDS011;4156;50.908;6.974;2022-11-20T01:49:26;11.53;;;7.83;;
8230;SDS011;4156;50.908;6.974;2022-11-20T01:51:58;11.13;;;7.53;;
8230;SDS011;4156;50.908;6.974;2022-11-20T01:54:31;9.80;;;7.00;;
8230;SDS011;4156;50.908;6.974;2022-11-20T01:57:01;11.57;;;7.87;;
8230;SDS011;4156;50.908;6.974;2022-11-20T01:59:28;10.23;;;7.70;;
8230;SDS011;4156;50.908;6.974;2022-11-20T02:01:54;12.70;;;8.30;;
8230;SDS011;4156;50.908;6.974;2022-11-20T02:04:20;11.27;;;8.27;;
8230;SDS011;4156;50.908;6.974;2022-11-20T02:06:48;11.43;;;8.40;;
8230;SDS011;4156;50.908;6.974;2022-11-20T02:09:34;12.27;;;7.80;;
8230;SDS011;4156;50.908;6.974;2022-11-20T02:12:00;13.37;;;7.80;;
8230;SDS011;4156;50.908;6.974;2022-11-20T02:14:25;12.77;;;8.53;;
8230;SDS011;4156;50.908;6.974;2022-11-20T02:16:52;11.50;;;7.67;;
8230;SDS011;4156;50.908;6.974;2022-11-20T02:19:23;12.93;;;9.00;;
8230;SDS011;4156;50.908;6.974;2022-11-20T02:25:01;10.40;;;7.33;;
8230;SDS011;4156;50.908;6.974;2022-11-20T02:27:28;12.17;;;8.63;;
8230;SDS011;4156;50.908;6.974;2022-11-20T02:29:58;12.17;;;8.73;;
8230;SDS011;4156;50.908;6.974;2022-11-20T02:32:29;12.47;;;7.67;;
8230;SDS011;4156;50.908;6.974;2022-11-20T02:34:56;10.77;;;7.83;;
8230;SDS011;4156;50.908;6.974;2022-11-20T02:37:22;12.20;;;8.77;;
8230;SDS011;4156;50.908;6.974;2022-11-20T02:39:52;11.03;;;8.00;;
8230;SDS011;4156;50.908;6.974;2022-11-20T02:42:18;12.10;;;8.10;;
8230;SDS011;4156;50.908;6.974;2022-11-20T02:44:43;12.03;;;8.27;;
8230;SDS011;4156;50.908;6.974;2022-11-20T02:47:09;10.53;;;7.63;;
8230;SDS011;4156;50.908;6.974;2022-11-20T02:49:35;10.90;;;7.33;;
8230;SDS011;4156;50.908;6.974;2022-11-20T02:52:00;10.90;;;7.60;;
8230;SDS011;4156;50.908;6.974;2022-11-20T02:54:26;12.90;;;8.17;;
8230;SDS011;4156;50.908;6.974;2022-11-20T02:56:51;10.97;;;8.03;;
8230;SDS011;4156;50.908;6.974;2022-11-20T02:59:17;12.67;;;8.57;;
8230;SDS011;4156;50.908;6.974;2022-11-20T03:01:43;13.50;;;8.17;;
8230;SDS011;4156;50.908;6.974;2022-11-20T03:04:08;11.00;;;8.07;;
8230;SDS011;4156;50.908;6.974;2022-11-20T03:06:34;10.77;;;7.87;;
8230;SDS011;4156;50.908;6.974;2022-11-20T03:08:59;13.23;;;7.80;;
8230;SDS011;4156;50.908;6.974;2022-11-20T03:11:25;11.83;;;7.83;;
8230;SDS011;4156;50.908;6.974;2022-11-20T03:13:50;11.07;;;7.83;;
8230;SDS011;4156;50.908;6.974;2022-11-20T03:16:17;12.37;;;8.37;;
8230;SDS011;4156;50.908;6.974;2022-11-20T03:18:44;11.70;;;8.40;;
8230;SDS011;4156;50.908;6.974;2022-11-20T03:21:11;10.00;;;7.20;;
8230;SDS011;4156;50.908;6.974;2022-11-20T03:23:37;10.90;;;7.57;;
8230;SDS011;4156;50.908;6.974;2022-11-20T03:26:16;12.63;;;8.87;;
8230;SDS011;4156;50.908;6.974;2022-11-20T03:28:48;12.23;;;8.50;;
8230;SDS011;4156;50.908;6.974;2022-11-20T03:31:15;11.20;;;8.50;;
8230;SDS011;4156;50.908;6.974;2022-11-20T03:33:42;11.90;;;8.33;;
8230;SDS011;4156;50.908;6.974;2022-11-20T03:36:09;11.20;;;8.30;;
8230;SDS011;4156;50.908;6.974;2022-11-20T03:38:37;11.83;;;8.00;;
8230;SDS011;4156;50.908;6.974;2022-11-20T03:41:04;13.27;;;8.63;;
8230;SDS011;4156;50.908;6.974;2022-11-20T03:43:31;11.93;;;8.27;;
8230;SDS011;4156;50.908;6.974;2022-11-20T03:45:57;10.27;;;7.13;;
8230;SDS011;4156;50.908;6.974;2022-11-20T03:48:23;10.30;;;7.53;;
8230;SDS011;4156;50.908;6.974;2022-11-20T03:50:49;10.77;;;7.77;;
8230;SDS011;4156;50.908;6.974;2022-11-20T03:53:15;12.97;;;8.83;;
8230;SDS011;4156;50.908;6.974;2022-11-20T03:55:41;11.40;;;8.10;;
8230;SDS011;4156;50.908;6.974;2022-11-20T03:58:07;12.90;;;8.23;;
8230;SDS011;4156;50.908;6.974;2022-11-20T04:00:33;11.93;;;8.33;;
8230;SDS011;4156;50.908;6.974;2022-11-20T04:02:59;12.43;;;8.23;;
8230;SDS011;4156;50.908;6.974;2022-11-20T04:05:25;13.63;;;8.60;;
8230;SDS011;4156;50.908;6.974;2022-11-20T04:07:50;11.70;;;8.03;;
8230;SDS011;4156;50.908;6.974;2022-11-20T04:10:16;11.93;;;7.97;;
8230;SDS011;4156;50.908;6.974;2022-11-20T04:12:41;12.03;;;8.60;;
8230;SDS011;4156;50.908;6.974;2022-11-20T04:15:07;12.23;;;7.80;;
8230;SDS011;4156;50.908;6.974;2022-11-20T04:17:33;13.57;;;8.93;;
8230;SDS011;4156;50.908;6.974;2022-11-20T04:19:58;12.07;;;8.43;;
8230;SDS011;4156;50.908;6.974;2022-11-20T04:22:24;12.50;;;8.33;;
8230;SDS011;4156;50.908;6.974;2022-11-20T04:24:50;14.10;;;9.03;;
8230;SDS011;4156;50.908;6.974;2022-11-20T04:27:15;13.50;;;9.13;;
8230;SDS011;4156;50.908;6.974;2022-11-20T04:29:41;14.77;;;9.70;;
8230;SDS011;4156;50.908;6.974;2022-11-20T04:32:06;16.20;;;9.67;;
8230;SDS011;4156;50.908;6.974;2022-11-20T04:34:32;13.70;;;8.90;;
8230;SDS011;4156;50.908;6.974;2022-11-20T04:36:57;15.53;;;9.23;;
8230;SDS011;4156;50.908;6.974;2022-11-20T04:39:23;16.43;;;10.20;;
8230;SDS011;4156;50.908;6.974;2022-11-20T04:41:49;16.17;;;9.57;;
8230;SDS011;4156;50.908;6.974;2022-11-20T04:44:34;14.80;;;9.20;;
8230;SDS011;4156;50.908;6.974;2022-11-20T04:47:00;16.23;;;10.70;;
8230;SDS011;4156;50.908;6.974;2022-11-20T04:49:25;15.13;;;10.50;;
8230;SDS011;4156;50.908;6.974;2022-11-20T04:51:52;16.07;;;9.77;;
8230;SDS011;4156;50.908;6.974;2022-11-20T04:54:18;13.90;;;9.03;;
8230;SDS011;4156;50.908;6.974;2022-11-20T04:56:46;16.87;;;9.67;;
8230;SDS011;4156;50.908;6.974;2022-11-20T04:59:12;14.43;;;9.43;;
8230;SDS011;4156;50.908;6.974;2022-11-20T05:01:38;14.60;;;8.97;;
8230;SDS011;4156;50.908;6.974;2022-11-20T05:04:04;15.57;;;9.53;;
8230;SDS011;4156;50.908;6.974;2022-11-20T05:06:30;14.47;;;8.97;;
8230;SDS011;4156;50.908;6.974;2022-11-20T05:08:56;13.93;;;9.87;;
8230;SDS011;4156;50.908;6.974;2022-11-20T05:11:22;14.37;;;9.40;;
8230;SDS011;4156;50.908;6.974;2022-11-20T05:13:48;14.47;;;9.30;;
8230;SDS011;4156;50.908;6.974;2022-11-20T05:16:16;13.97;;;9.17;;
8230;SDS011;4156;50.908;6.974;2022-11-20T05:18:46;15.07;;;9.40;;
8230;SDS011;4156;50.908;6.974;2022-11-20T05:21:13;18.53;;;10.60;;
8230;SDS011;4156;50.908;6.974;2022-11-20T05:23:39;15.90;;;11.10;;
8230;SDS011;4156;50.908;6.974;2022-11-20T05:26:06;14.57;;;9.37;;
8230;SDS011;4156;50.908;6.974;2022-11-20T05:28:33;15.33;;;10.40;;
8230;SDS011;4156;50.908;6.974;2022-11-20T05:31:09;18.37;;;11.97;;
8230;SDS011;4156;50.908;6.974;2022-11-20T05:33:36;16.40;;;11.03;;
8230;SDS011;4156;50.908;6.974;2022-11-20T05:36:04;15.67;;;10.83;;
8230;SDS011;4156;50.908;6.974;2022-11-20T05:38:30;18.87;;;11.53;;
8230;SDS011;4156;50.908;6.974;2022-11-20T05:41:06;19.10;;;11.97;;
8230;SDS011;4156;50.908;6.974;2022-11-20T05:43:34;17.23;;;10.83;;
8230;SDS011;4156;50.908;6.974;2022-11-20T05:46:01;17.83;;;10.50;;
8230;SDS011;4156;50.908;6.974;2022-11-20T05:48:27;18.67;;;11.60;;
8230;SDS011;4156;50.908;6.974;2022-11-20T05:50:53;16.23;;;10.40;;
8230;SDS011;4156;50.908;6.974;2022-11-20T05:53:18;16.60;;;10.80;;
8230;SDS011;4156;50.908;6.974;2022-11-20T05:55:44;19.37;;;10.57;;
8230;SDS011;4156;50.908;6.974;2022-11-20T05:58:09;16.37;;;10.77;;
8230;SDS011;4156;50.908;6.974;2022-11-20T06:00:35;17.27;;;10.73;;
8230;SDS011;4156;50.908;6.974;2022-11-20T06:03:00;16.87;;;11.10;;
8230;SDS011;4156;50.908;6.974;2022-11-20T06:05:26;17.90;;;10.50;;
8230;SDS011;4156;50.908;6.974;2022-11-20T06:07:52;17.90;;;11.00;;
8230;SDS011;4156;50.908;6.974;2022-11-20T06:10:17;16.87;;;11.10;;
8230;SDS011;4156;50.908;6.974;2022-11-20T06:12:43;14.30;;;9.23;;
8230;SDS011;4156;50.908;6.974;2022-11-20T06:15:08;14.93;;;10.20;;
8230;SDS011;4156;50.908;6.974;2022-11-20T06:17:34;16.53;;;10.57;;
8230;SDS011;4156;50.908;6.974;2022-11-20T06:20:00;13.80;;;9.37;;
8230;SDS011;4156;50.908;6.974;2022-11-20T06:22:25;14.30;;;8.20;;
8230;SDS011;4156;50.908;6.974;2022-11-20T06:24:51;15.00;;;9.80;;
8230;SDS011;4156;50.908;6.974;2022-11-20T06:27:16;16.53;;;10.17;;
8230;SDS011;4156;50.908;6.974;2022-11-20T06:29:42;14.10;;;9.30;;
8230;SDS011;4156;50.908;6.974;2022-11-20T06:32:07;13.70;;;9.37;;
8230;SDS011;4156;50.908;6.974;2022-11-20T06:34:33;13.67;;;9.43;;
8230;SDS011;4156;50.908;6.974;2022-11-20T06:36:58;13.40;;;8.77;;
8230;SDS011;4156;50.908;6.974;2022-11-20T06:39:24;15.27;;;8.83;;
8230;SDS011;4156;50.908;6.974;2022-11-20T06:41:49;13.13;;;9.43;;
8230;SDS011;4156;50.908;6.974;2022-11-20T06:44:15;14.63;;;9.17;;
8230;SDS011;4156;50.908;6.974;2022-11-20T06:46:40;14.63;;;9.73;;
8230;SDS011;4156;50.908;6.974;2022-11-20T06:49:06;13.57;;;9.03;;
8230;SDS011;4156;50.908;6.974;2022-11-20T06:51:31;13.00;;;9.00;;
8230;SDS011;4156;50.908;6.974;2022-11-20T06:53:57;13.93;;;9.77;;
8230;SDS011;4156;50.908;6.974;2022-11-20T06:56:22;17.57;;;9.93;;
8230;SDS011;4156;50.908;6.974;2022-11-20T06:58:48;13.63;;;9.03;;
8230;SDS011;4156;50.908;6.974;2022-11-20T07:01:14;14.20;;;8.80;;
8230;SDS011;4156;50.908;6.974;2022-11-20T07:03:40;14.47;;;9.63;;
8230;SDS011;4156;50.908;6.974;2022-11-20T07:06:06;12.23;;;9.00;;
8230;SDS011;4156;50.908;6.974;2022-11-20T07:08:32;14.73;;;9.43;;
8230;SDS011;4156;50.908;6.974;2022-11-20T07:10:59;14.33;;;9.43;;
8230;SDS011;4156;50.908;6.974;2022-11-20T07:13:26;15.03;;;10.77;;
8230;SDS011;4156;50.908;6.974;2022-11-20T07:15:52;13.43;;;9.00;;
8230;SDS011;4156;50.908;6.974;2022-11-20T07:18:18;14.23;;;9.37;;
8230;SDS011;4156;50.908;6.974;2022-11-20T07:20:44;14.23;;;9.23;;
8230;SDS011;4156;50.908;6.974;2022-11-20T07:23:09;14.93;;;9.10;;
8230;SDS011;4156;50.908;6.974;2022-11-20T07:25:34;12.23;;;8.90;;
8230;SDS011;4156;50.908;6.974;2022-11-20T07:28:00;13.83;;;9.10;;
8230;SDS011;4156;50.908;6.974;2022-11-20T07:30:27;17.70;;;9.90;;
8230;SDS011;4156;50.908;6.974;2022-11-20T07:32:53;13.40;;;9.10;;
8230;SDS011;4156;50.908;6.974;2022-11-20T07:35:20;13.47;;;9.17;;
8230;SDS011;4156;50.908;6.974;2022-11-20T07:37:46;14.97;;;9.17;;
8230;SDS011;4156;50.908;6.974;2022-11-20T07:40:13;13.83;;;9.73;;
8230;SDS011;4156;50.908;6.974;2022-11-20T07:42:46;13.63;;;9.17;;
8230;SDS011;4156;50.908;6.974;2022-11-20T07:45:13;15.63;;;11.52;;
8230;SDS011;4156;50.908;6.974;2022-11-20T07:47:39;13.50;;;9.93;;
8230;SDS011;4156;50.908;6.974;2022-11-20T07:50:04;15.93;;;9.80;;
8230;SDS011;4156;50.908;6.974;2022-11-20T07:52:30;14.93;;;9.80;;
8230;SDS011;4156;50.908;6.974;2022-11-20T07:54:56;13.70;;;9.63;;
8230;SDS011;4156;50.908;6.974;2022-11-20T07:57:21;14.30;;;9.50;;
8230;SDS011;4156;50.908;6.974;2022-11-20T07:59:47;14.40;;;8.57;;
8230;SDS011;4156;50.908;6.974;2022-11-20T08:02:12;14.47;;;9.70;;
8230;SDS011;4156;50.908;6.974;2022-11-20T08:04:38;13.37;;;9.47;;
8230;SDS011;4156;50.908;6.974;2022-11-20T08:07:03;13.30;;;8.80;;
8230;SDS011;4156;50.908;6.974;2022-11-20T08:09:29;14.53;;;9.00;;
8230;SDS011;4156;50.908;6.974;2022-11-20T08:11:54;12.93;;;8.33;;
8230;SDS011;4156;50.908;6.974;2022-11-20T08:14:38;13.20;;;8.70;;
8230;SDS011;4156;50.908;6.974;2022-11-20T08:17:04;11.23;;;7.93;;
8230;SDS011;4156;50.908;6.974;2022-11-20T08:19:29;14.87;;;9.60;;
8230;SDS011;4156;50.908;6.974;2022-11-20T08:21:55;15.57;;;10.40;;
8230;SDS011;4156;50.908;6.974;2022-11-20T08:24:20;12.53;;;8.80;;
8230;SDS011;4156;50.908;6.974;2022-11-20T08:26:46;14.73;;;10.23;;
8230;SDS011;4156;50.908;6.974;2022-11-20T08:29:11;15.37;;;9.20;;
8230;SDS011;4156;50.908;6.974;2022-11-20T08:31:37;15.37;;;9.40;;
8230;SDS011;4156;50.908;6.974;2022-11-20T08:34:02;14.23;;;9.87;;
8230;SDS011;4156;50.908;6.974;2022-11-20T08:36:28;17.37;;;10.37;;
8230;SDS011;4156;50.908;6.974;2022-11-20T08:38:54;14.83;;;9.13;;
8230;SDS011;4156;50.908;6.974;2022-11-20T08:41:21;13.77;;;9.77;;
8230;SDS011;4156;50.908;6.974;2022-11-20T08:43:50;14.60;;;10.10;;
8230;SDS011;4156;50.908;6.974;2022-11-20T08:46:17;14.37;;;9.27;;
8230;SDS011;4156;50.908;6.974;2022-11-20T08:48:43;16.00;;;10.77;;
8230;SDS011;4156;50.908;6.974;2022-11-20T08:51:09;17.67;;;10.40;;
8230;SDS011;4156;50.908;6.974;2022-11-20T08:53:35;17.00;;;10.47;;
8230;SDS011;4156;50.908;6.974;2022-11-20T08:56:00;14.23;;;9.73;;
8230;SDS011;4156;50.908;6.974;2022-11-20T08:58:26;19.13;;;10.57;;
8230;SDS011;4156;50.908;6.974;2022-11-20T09:00:51;14.57;;;10.17;;
8230;SDS011;4156;50.908;6.974;2022-11-20T09:03:18;16.97;;;11.67;;
8230;SDS011;4156;50.908;6.974;2022-11-20T09:05:43;15.53;;;9.90;;
8230;SDS011;4156;50.908;6.974;2022-11-20T09:08:09;15.70;;;10.10;;
8230;SDS011;4156;50.908;6.974;2022-11-20T09:10:34;16.40;;;10.43;;
8230;SDS011;4156;50.908;6.974;2022-11-20T09:13:01;15.57;;;10.50;;
8230;SDS011;4156;50.908;6.974;2022-11-20T09:15:26;14.40;;;9.83;;
8230;SDS011;4156;50.908;6.974;2022-11-20T09:17:56;15.93;;;10.43;;
8230;SDS011;4156;50.908;6.974;2022-11-20T09:20:23;15.43;;;10.37;;
8230;SDS011;4156;50.908;6.974;2022-11-20T09:22:49;18.53;;;10.50;;
8230;SDS011;4156;50.908;6.974;2022-11-20T09:25:16;15.27;;;10.10;;
8230;SDS011;4156;50.908;6.974;2022-11-20T09:27:42;16.47;;;10.13;;
8230;SDS011;4156;50.908;6.974;2022-11-20T09:30:09;15.57;;;10.20;;
8230;SDS011;4156;50.908;6.974;2022-11-20T09:32:35;19.33;;;11.27;;
8230;SDS011;4156;50.908;6.974;2022-11-20T09:35:01;21.80;;;12.37;;
8230;SDS011;4156;50.908;6.974;2022-11-20T09:37:27;17.27;;;10.77;;
8230;SDS011;4156;50.908;6.974;2022-11-20T09:39:53;17.07;;;10.97;;
8230;SDS011;4156;50.908;6.974;2022-11-20T09:55:34;15.67;;;10.17;;
8230;SDS011;4156;50.908;6.974;2022-11-20T09:58:02;16.80;;;11.00;;
8230;SDS011;4156;50.908;6.974;2022-11-20T10:00:38;16.30;;;10.73;;
8230;SDS011;4156;50.908;6.974;2022-11-20T10:03:17;17.37;;;10.63;;
8230;SDS011;4156;50.908;6.974;2022-11-20T10:05:49;17.47;;;11.43;;
8230;SDS011;4156;50.908;6.974;2022-11-20T10:08:19;18.40;;;11.30;;
8230;SDS011;4156;50.908;6.974;2022-11-20T10:10:47;17.13;;;9.93;;
8230;SDS011;4156;50.908;6.974;2022-11-20T10:16:14;19.00;;;11.70;;
8230;SDS011;4156;50.908;6.974;2022-11-20T10:24:30;18.93;;;11.37;;
8230;SDS011;4156;50.908;6.974;2022-11-20T10:30:10;18.87;;;12.10;;
8230;SDS011;4156;50.908;6.974;2022-11-20T10:32:39;19.47;;;12.37;;
8230;SDS011;4156;50.908;6.974;2022-11-20T10:37:44;17.73;;;11.10;;
8230;SDS011;4156;50.908;6.974;2022-11-20T10:42:57;20.90;;;12.20;;
8230;SDS011;4156;50.908;6.974;2022-11-20T10:47:56;19.03;;;12.40;;
8230;SDS011;4156;50.908;6.974;2022-11-20T10:50:24;16.60;;;10.57;;
8230;SDS011;4156;50.908;6.974;2022-11-20T10:52:55;18.83;;;11.70;;
8230;SDS011;4156;50.908;6.974;2022-11-20T10:55:50;17.43;;;11.40;;
8230;SDS011;4156;50.908;6.974;2022-11-20T10:58:28;20.20;;;12.27;;
8230;SDS011;4156;50.908;6.974;2022-11-20T11:01:14;20.17;;;11.27;;
8230;SDS011;4156;50.908;6.974;2022-11-20T11:03:43;18.73;;;11.23;;
8230;SDS011;4156;50.908;6.974;2022-11-20T11:06:21;18.93;;;12.20;;
8230;SDS011;4156;50.908;6.974;2022-11-20T11:08:58;17.37;;;11.27;;
8230;SDS011;4156;50.908;6.974;2022-11-20T11:11:27;16.83;;;11.07;;
8230;SDS011;4156;50.908;6.974;2022-11-20T11:14:08;20.33;;;12.80;;
8230;SDS011;4156;50.908;6.974;2022-11-20T11:16:40;17.53;;;11.07;;
8230;SDS011;4156;50.908;6.974;2022-11-20T11:19:15;16.10;;;10.37;;
8230;SDS011;4156;50.908;6.974;2022-11-20T11:21:47;18.10;;;11.87;;
8230;SDS011;4156;50.908;6.974;2022-11-20T11:27:31;18.97;;;11.87;;
8230;SDS011;4156;50.908;6.974;2022-11-20T11:29:39;19.17;;;11.93;;
8230;SDS011;4156;50.908;6.974;2022-11-20T11:32:08;16.90;;;9.90;;
8230;SDS011;4156;50.908;6.974;2022-11-20T11:34:37;21.13;;;12.93;;
8230;SDS011;4156;50.908;6.974;2022-11-20T11:37:03;21.27;;;11.30;;
8230;SDS011;4156;50.908;6.974;2022-11-20T11:39:31;21.47;;;12.37;;
8230;SDS011;4156;50.908;6.974;2022-11-20T11:41:58;22.37;;;12.37;;
8230;SDS011;4156;50.908;6.974;2022-11-20T11:44:30;18.97;;;11.23;;
8230;SDS011;4156;50.908;6.974;2022-11-20T11:48:00;18.13;;;12.10;;
8230;SDS011;4156;50.908;6.974;2022-11-20T11:52:44;17.80;;;11.27;;
8230;SDS011;4156;50.908;6.974;2022-11-20T11:55:15;19.07;;;11.70;;
8230;SDS011;4156;50.908;6.974;2022-11-20T11:57:54;16.80;;;10.97;;
8230;SDS011;4156;50.908;6.974;2022-11-20T12:00:45;19.83;;;11.57;;
8230;SDS011;4156;50.908;6.974;2022-11-20T12:03:19;18.67;;;11.40;;
8230;SDS011;4156;50.908;6.974;2022-11-20T12:05:51;18.83;;;12.00;;
8230;SDS011;4156;50.908;6.974;2022-11-20T12:10:53;18.70;;;11.53;;
8230;SDS011;4156;50.908;6.974;2022-11-20T12:15:56;18.23;;;10.87;;
8230;SDS011;4156;50.908;6.974;2022-11-20T12:18:23;17.33;;;10.83;;
8230;SDS011;4156;50.908;6.974;2022-11-20T12:21:08;16.30;;;10.30;;
8230;SDS011;4156;50.908;6.974;2022-11-20T12:23:57;16.20;;;10.23;;
8230;SDS011;4156;50.908;6.974;2022-11-20T12:26:53;22.00;;;11.90;;
8230;SDS011;4156;50.908;6.974;2022-11-20T12:29:43;17.77;;;11.40;;
8230;SDS011;4156;50.908;6.974;2022-11-20T12:52:38;16.87;;;9.80;;
8230;SDS011;4156;50.908;6.974;2022-11-20T12:55:34;18.90;;;11.43;;
8230;SDS011;4156;50.908;6.974;2022-11-20T12:58:27;20.10;;;10.87;;
8230;SDS011;4156;50.908;6.974;2022-11-20T13:06:41;16.30;;;10.60;;
8230;SDS011;4156;50.908;6.974;2022-11-20T13:09:09;17.77;;;10.47;;
8230;SDS011;4156;50.908;6.974;2022-11-20T13:11:43;21.13;;;11.17;;
8230;SDS011;4156;50.908;6.974;2022-11-20T13:14:23;16.00;;;10.30;;
8230;SDS011;4156;50.908;6.974;2022-11-20T13:19:39;17.90;;;11.17;;
8230;SDS011;4156;50.908;6.974;2022-11-20T13:22:04;17.50;;;11.10;;
8230;SDS011;4156;50.908;6.974;2022-11-20T13:24:31;20.33;;;12.63;;
8230;SDS011;4156;50.908;6.974;2022-11-20T13:27:01;18.57;;;11.03;;
8230;SDS011;4156;50.908;6.974;2022-11-20T13:29:47;15.53;;;10.33;;
8230;SDS011;4156;50.908;6.974;2022-11-20T13:32:42;18.93;;;10.70;;
8230;SDS011;4156;50.908;6.974;2022-11-20T13:35:30;22.47;;;13.07;;
8230;SDS011;4156;50.908;6.974;2022-11-20T13:40:39;19.60;;;11.60;;
8230;SDS011;4156;50.908;6.974;2022-11-20T13:43:22;18.50;;;11.03;;
8230;SDS011;4156;50.908;6.974;2022-11-20T13:45:55;20.20;;;11.30;;
8230;SDS011;4156;50.908;6.974;2022-11-20T13:48:21;19.50;;;11.27;;
8230;SDS011;4156;50.908;6.974;2022-11-20T13:50:56;17.60;;;10.43;;
8230;SDS011;4156;50.908;6.974;2022-11-20T13:53:33;18.53;;;10.77;;
8230;SDS011;4156;50.908;6.974;2022-11-20T13:56:24;17.07;;;9.77;;
8230;SDS011;4156;50.908;6.974;2022-11-20T13:59:15;18.17;;;9.97;;
8230;SDS011;4156;50.908;6.974;2022-11-20T14:01:48;18.63;;;10.03;;
8230;SDS011;4156;50.908;6.974;2022-11-20T14:04:15;18.97;;;10.40;;
8230;SDS011;4156;50.908;6.974;2022-11-20T14:06:45;16.20;;;11.00;;
8230;SDS011;4156;50.908;6.974;2022-11-20T14:09:23;13.10;;;8.73;;
8230;SDS011;4156;50.908;6.974;2022-11-20T14:11:51;15.57;;;10.43;;
8230;SDS011;4156;50.908;6.974;2022-11-20T14:14:17;18.17;;;10.10;;
8230;SDS011;4156;50.908;6.974;2022-11-20T14:16:46;15.77;;;9.63;;
8230;SDS011;4156;50.908;6.974;2022-11-20T14:21:47;18.40;;;10.33;;
8230;SDS011;4156;50.908;6.974;2022-11-20T14:24:13;14.93;;;9.50;;
8230;SDS011;4156;50.908;6.974;2022-11-20T14:26:43;15.53;;;9.50;;
8230;SDS011;4156;50.908;6.974;2022-11-20T14:29:17;15.70;;;9.43;;
8230;SDS011;4156;50.908;6.974;2022-11-20T14:31:50;16.57;;;10.23;;
8230;SDS011;4156;50.908;6.974;2022-11-20T14:34:19;13.03;;;8.30;;
8230;SDS011;4156;50.908;6.974;2022-11-20T14:36:47;16.07;;;10.00;;
8230;SDS011;4156;50.908;6.974;2022-11-20T14:39:25;16.43;;;10.00;;
8230;SDS011;4156;50.908;6.974;2022-11-20T14:41:55;14.93;;;10.00;;
8230;SDS011;4156;50.908;6.974;2022-11-20T14:44:21;14.70;;;9.43;;
8230;SDS011;4156;50.908;6.974;2022-11-20T14:46:51;15.57;;;8.83;;
8230;SDS011;4156;50.908;6.974;2022-11-20T14:49:17;15.30;;;9.47;;
8230;SDS011;4156;50.908;6.974;2022-11-20T14:51:43;16.57;;;9.67;;
8230;SDS011;4156;50.908;6.974;2022-11-20T14:54:14;16.87;;;9.60;;
8230;SDS011;4156;50.908;6.974;2022-11-20T14:56:40;13.20;;;9.03;;
8230;SDS011;4156;50.908;6.974;2022-11-20T14:59:07;14.23;;;9.33;;
8230;SDS011;4156;50.908;6.974;2022-11-20T15:01:34;13.77;;;8.43;;
8230;SDS011;4156;50.908;6.974;2022-11-20T15:04:07;14.10;;;9.20;;
8230;SDS011;4156;50.908;6.974;2022-11-20T15:06:36;14.17;;;8.87;;
8230;SDS011;4156;50.908;6.974;2022-11-20T15:09:03;18.53;;;11.13;;
8230;SDS011;4156;50.908;6.974;2022-11-20T15:11:31;16.17;;;9.57;;
8230;SDS011;4156;50.908;6.974;2022-11-20T15:14:03;16.10;;;9.33;;
8230;SDS011;4156;50.908;6.974;2022-11-20T15:16:30;17.33;;;10.53;;
8230;SDS011;4156;50.908;6.974;2022-11-20T15:18:57;15.53;;;9.87;;
8230;SDS011;4156;50.908;6.974;2022-11-20T15:21:23;18.03;;;10.47;;
8230;SDS011;4156;50.908;6.974;2022-11-20T15:23:49;17.43;;;10.40;;
8230;SDS011;4156;50.908;6.974;2022-11-20T15:26:20;17.07;;;10.47;;
8230;SDS011;4156;50.908;6.974;2022-11-20T15:28:50;16.33;;;9.00;;
8230;SDS011;4156;50.908;6.974;2022-11-20T15:31:19;19.07;;;11.37;;
8230;SDS011;4156;50.908;6.974;2022-11-20T15:33:46;19.47;;;11.30;;
8230;SDS011;4156;50.908;6.974;2022-11-20T15:36:11;16.10;;;9.93;;
8230;SDS011;4156;50.908;6.974;2022-11-20T15:38:37;16.70;;;9.77;;
8230;SDS011;4156;50.908;6.974;2022-11-20T15:41:03;16.30;;;10.03;;
8230;SDS011;4156;50.908;6.974;2022-11-20T15:43:28;17.50;;;10.63;;
8230;SDS011;4156;50.908;6.974;2022-11-20T15:46:01;17.43;;;9.97;;
8230;SDS011;4156;50.908;6.974;2022-11-20T15:48:31;18.40;;;10.47;;
8230;SDS011;4156;50.908;6.974;2022-11-20T15:51:11;16.63;;;9.77;;
8230;SDS011;4156;50.908;6.974;2022-11-20T15:53:54;13.60;;;8.37;;
8230;SDS011;4156;50.908;6.974;2022-11-20T15:56:20;16.87;;;9.50;;
8230;SDS011;4156;50.908;6.974;2022-11-20T15:58:45;14.23;;;9.23;;
8230;SDS011;4156;50.908;6.974;2022-11-20T16:01:12;12.47;;;8.73;;
8230;SDS011;4156;50.908;6.974;2022-11-20T16:03:39;13.17;;;7.77;;
8230;SDS011;4156;50.908;6.974;2022-11-20T16:06:05;12.13;;;8.10;;
8230;SDS011;4156;50.908;6.974;2022-11-20T16:08:31;13.30;;;8.77;;
8230;SDS011;4156;50.908;6.974;2022-11-20T16:10:56;11.80;;;7.40;;
8230;SDS011;4156;50.908;6.974;2022-11-20T16:13:22;12.83;;;7.80;;
8230;SDS011;4156;50.908;6.974;2022-11-20T16:16:19;13.70;;;9.23;;
8230;SDS011;4156;50.908;6.974;2022-11-20T16:18:48;11.30;;;7.27;;
8230;SDS011;4156;50.908;6.974;2022-11-20T16:21:14;12.40;;;7.80;;
8230;SDS011;4156;50.908;6.974;2022-11-20T16:23:40;12.40;;;7.30;;
8230;SDS011;4156;50.908;6.974;2022-11-20T16:26:11;13.63;;;8.90;;